sensor_id;sensor_type;location;lat;lon;timestamp;noise_LAeq;noise_LA_min;noise_LA_max;noise_LA01;noise_LA95
56099;Laerm;44276;49.534;6.378;2023-12-28T00:00:43;44.25;42.93;45.66;;
56099;Laerm;44276;49.534;6.378;2023-12-28T00:03:11;44.28;43.04;45.39;;
56099;Laerm;44276;49.534;6.378;2023-12-28T00:05:39;44.25;43.09;46.18;;
56099;Laerm;44276;49.534;6.378;2023-12-28T00:08:08;44.18;42.93;45.45;;
56099;Laerm;44276;49.534;6.378;2023-12-28T00:10:36;44.19;42.82;45.69;;
56099;Laerm;44276;49.534;6.378;2023-12-28T00:13:06;44.20;42.76;46.05;;
56099;Laerm;44276;49.534;6.378;2023-12-28T00:15:34;44.17;42.93;45.86;;
56099;Laerm;44276;49.534;6.378;2023-12-28T00:18:02;44.21;43.09;45.91;;
56099;Laerm;44276;49.534;6.378;2023-12-28T00:20:31;44.29;43.04;47.02;;
56099;Laerm;44276;49.534;6.378;2023-12-28T00:22:59;44.28;43.04;46.78;;
56099;Laerm;44276;49.534;6.378;2023-12-28T00:25:27;44.25;42.88;45.67;;
56099;Laerm;44276;49.534;6.378;2023-12-28T00:27:55;44.31;43.09;45.99;;
56099;Laerm;44276;49.534;6.378;2023-12-28T00:30:25;44.28;42.93;46.13;;
56099;Laerm;44276;49.534;6.378;2023-12-28T00:32:53;44.27;42.93;45.59;;
56099;Laerm;44276;49.534;6.378;2023-12-28T00:35:22;44.30;42.93;46.28;;
56099;Laerm;44276;49.534;6.378;2023-12-28T00:37:50;44.29;42.98;46.35;;
56099;Laerm;44276;49.534;6.378;2023-12-28T00:40:18;44.26;42.93;45.23;;
56099;Laerm;44276;49.534;6.378;2023-12-28T00:42:46;44.27;42.98;45.63;;
56099;Laerm;44276;49.534;6.378;2023-12-28T00:45:14;44.32;42.93;46.07;;
56099;Laerm;44276;49.534;6.378;2023-12-28T00:47:44;44.41;43.04;49.71;;
56099;Laerm;44276;49.534;6.378;2023-12-28T00:50:12;44.18;42.98;45.39;;
56099;Laerm;44276;49.534;6.378;2023-12-28T00:52:41;44.20;42.93;45.54;;
56099;Laerm;44276;49.534;6.378;2023-12-28T00:55:11;45.17;42.71;56.11;;
56099;Laerm;44276;49.534;6.378;2023-12-28T00:57:39;44.89;43.00;53.92;;
56099;Laerm;44276;49.534;6.378;2023-12-28T01:00:08;44.58;43.09;50.64;;
56099;Laerm;44276;49.534;6.378;2023-12-28T01:02:37;45.00;43.24;53.64;;
56099;Laerm;44276;49.534;6.378;2023-12-28T01:05:07;44.69;43.09;51.09;;
56099;Laerm;44276;49.534;6.378;2023-12-28T01:07:35;44.24;42.65;46.66;;
56099;Laerm;44276;49.534;6.378;2023-12-28T01:10:04;44.51;43.09;51.82;;
56099;Laerm;44276;49.534;6.378;2023-12-28T01:12:33;44.29;42.88;47.06;;
56099;Laerm;44276;49.534;6.378;2023-12-28T01:15:00;44.26;43.04;45.66;;
56099;Laerm;44276;49.534;6.378;2023-12-28T01:17:28;44.20;42.93;45.97;;
56099;Laerm;44276;49.534;6.378;2023-12-28T01:19:56;44.27;42.82;47.36;;
56099;Laerm;44276;49.534;6.378;2023-12-28T01:22:26;44.17;42.98;45.63;;
56099;Laerm;44276;49.534;6.378;2023-12-28T01:24:54;44.24;42.93;46.82;;
56099;Laerm;44276;49.534;6.378;2023-12-28T01:27:22;44.20;42.76;45.63;;
56099;Laerm;44276;49.534;6.378;2023-12-28T01:29:50;44.18;42.82;45.27;;
56099;Laerm;44276;49.534;6.378;2023-12-28T01:32:18;44.19;42.76;49.43;;
56099;Laerm;44276;49.534;6.378;2023-12-28T01:34:46;44.24;43.19;46.54;;
56099;Laerm;44276;49.534;6.378;2023-12-28T01:37:14;44.21;43.04;45.48;;
56099;Laerm;44276;49.534;6.378;2023-12-28T01:39:44;44.21;43.04;45.30;;
56099;Laerm;44276;49.534;6.378;2023-12-28T01:42:12;44.25;43.09;46.57;;
56099;Laerm;44276;49.534;6.378;2023-12-28T01:44:40;44.26;42.93;46.38;;
56099;Laerm;44276;49.534;6.378;2023-12-28T01:47:09;44.22;43.09;46.23;;
56099;Laerm;44276;49.534;6.378;2023-12-28T01:49:37;44.19;42.82;45.33;;
56099;Laerm;44276;49.534;6.378;2023-12-28T01:52:06;44.19;42.76;45.20;;
56099;Laerm;44276;49.534;6.378;2023-12-28T01:54:36;44.19;42.88;45.27;;
56099;Laerm;44276;49.534;6.378;2023-12-28T01:57:08;44.20;43.04;45.45;;
56099;Laerm;44276;49.534;6.378;2023-12-28T01:59:36;44.19;43.09;45.33;;
56099;Laerm;44276;49.534;6.378;2023-12-28T02:02:04;44.19;42.82;45.45;;
56099;Laerm;44276;49.534;6.378;2023-12-28T02:04:33;44.20;42.98;45.42;;
56099;Laerm;44276;49.534;6.378;2023-12-28T02:07:02;44.19;43.19;45.48;;
56099;Laerm;44276;49.534;6.378;2023-12-28T02:09:31;44.18;42.98;45.30;;
56099;Laerm;44276;49.534;6.378;2023-12-28T02:11:59;44.20;42.88;45.48;;
56099;Laerm;44276;49.534;6.378;2023-12-28T02:14:29;44.22;43.04;45.30;;
56099;Laerm;44276;49.534;6.378;2023-12-28T02:17:04;44.20;42.98;45.30;;
56099;Laerm;44276;49.534;6.378;2023-12-28T02:19:45;44.24;42.76;46.69;;
56099;Laerm;44276;49.534;6.378;2023-12-28T02:22:16;44.24;43.09;45.42;;
56099;Laerm;44276;49.534;6.378;2023-12-28T02:25:06;44.22;42.88;47.44;;
56099;Laerm;44276;49.534;6.378;2023-12-28T02:27:38;44.19;42.93;45.20;;
56099;Laerm;44276;49.534;6.378;2023-12-28T02:30:09;44.20;43.09;45.39;;
56099;Laerm;44276;49.534;6.378;2023-12-28T02:32:49;44.19;42.82;45.36;;
56099;Laerm;44276;49.534;6.378;2023-12-28T02:35:24;44.20;42.88;45.36;;
56099;Laerm;44276;49.534;6.378;2023-12-28T02:37:58;44.21;43.14;45.39;;
56099;Laerm;44276;49.534;6.378;2023-12-28T02:40:31;44.22;42.93;45.36;;
56099;Laerm;44276;49.534;6.378;2023-12-28T02:43:03;44.19;43.04;45.23;;
56099;Laerm;44276;49.534;6.378;2023-12-28T02:45:31;44.20;43.09;45.27;;
56099;Laerm;44276;49.534;6.378;2023-12-28T02:47:59;44.23;42.76;45.62;;
56099;Laerm;44276;49.534;6.378;2023-12-28T02:50:28;44.19;42.76;45.30;;
56099;Laerm;44276;49.534;6.378;2023-12-28T02:52:57;44.20;42.82;45.36;;
56099;Laerm;44276;49.534;6.378;2023-12-28T02:55:26;44.20;42.98;45.30;;
56099;Laerm;44276;49.534;6.378;2023-12-28T02:57:56;44.20;43.04;45.30;;
56099;Laerm;44276;49.534;6.378;2023-12-28T03:00:28;44.20;43.04;45.36;;
56099;Laerm;44276;49.534;6.378;2023-12-28T03:02:57;44.20;42.88;45.23;;
56099;Laerm;44276;49.534;6.378;2023-12-28T03:05:25;44.18;42.93;45.33;;
56099;Laerm;44276;49.534;6.378;2023-12-28T03:07:53;44.20;43.04;45.20;;
56099;Laerm;44276;49.534;6.378;2023-12-28T03:10:22;44.20;42.82;45.25;;
56099;Laerm;44276;49.534;6.378;2023-12-28T03:12:51;44.22;42.98;45.30;;
56099;Laerm;44276;49.534;6.378;2023-12-28T03:15:20;44.20;42.76;45.33;;
56099;Laerm;44276;49.534;6.378;2023-12-28T03:17:48;44.23;43.09;45.51;;
56099;Laerm;44276;49.534;6.378;2023-12-28T03:20:17;44.22;42.93;45.27;;
56099;Laerm;44276;49.534;6.378;2023-12-28T03:22:45;44.21;43.09;45.39;;
56099;Laerm;44276;49.534;6.378;2023-12-28T03:25:14;44.22;42.88;45.39;;
56099;Laerm;44276;49.534;6.378;2023-12-28T03:27:42;44.22;42.88;45.39;;
56099;Laerm;44276;49.534;6.378;2023-12-28T03:30:11;44.26;43.09;45.60;;
56099;Laerm;44276;49.534;6.378;2023-12-28T03:32:41;44.24;43.04;45.57;;
56099;Laerm;44276;49.534;6.378;2023-12-28T03:35:09;44.24;42.98;45.69;;
56099;Laerm;44276;49.534;6.378;2023-12-28T03:37:37;44.23;43.09;45.57;;
56099;Laerm;44276;49.534;6.378;2023-12-28T03:40:06;44.25;43.09;45.33;;
56099;Laerm;44276;49.534;6.378;2023-12-28T03:42:35;44.26;43.04;45.39;;
56099;Laerm;44276;49.534;6.378;2023-12-28T03:45:04;44.25;43.24;45.36;;
56099;Laerm;44276;49.534;6.378;2023-12-28T03:47:32;44.25;43.09;45.51;;
56099;Laerm;44276;49.534;6.378;2023-12-28T03:50:01;44.26;43.09;47.63;;
56099;Laerm;44276;49.534;6.378;2023-12-28T03:52:30;44.25;43.24;45.36;;
56099;Laerm;44276;49.534;6.378;2023-12-28T03:54:58;44.24;42.88;45.42;;
56099;Laerm;44276;49.534;6.378;2023-12-28T03:57:27;44.25;42.88;45.57;;
56099;Laerm;44276;49.534;6.378;2023-12-28T03:59:55;44.26;43.14;45.30;;
56099;Laerm;44276;49.534;6.378;2023-12-28T04:02:23;44.27;42.98;45.39;;
56099;Laerm;44276;49.534;6.378;2023-12-28T04:04:54;44.26;43.04;45.48;;
56099;Laerm;44276;49.534;6.378;2023-12-28T04:07:26;44.25;42.59;45.36;;
56099;Laerm;44276;49.534;6.378;2023-12-28T04:09:54;44.24;42.76;45.36;;
56099;Laerm;44276;49.534;6.378;2023-12-28T04:12:23;44.25;42.88;45.39;;
56099;Laerm;44276;49.534;6.378;2023-12-28T04:14:51;44.26;43.09;45.45;;
56099;Laerm;44276;49.534;6.378;2023-12-28T04:17:19;44.28;43.04;45.23;;
56099;Laerm;44276;49.534;6.378;2023-12-28T04:19:47;44.27;43.14;45.33;;
56099;Laerm;44276;49.534;6.378;2023-12-28T04:22:16;44.26;42.98;45.48;;
56099;Laerm;44276;49.534;6.378;2023-12-28T04:24:45;44.26;42.82;45.14;;
56099;Laerm;44276;49.534;6.378;2023-12-28T04:27:13;44.29;43.04;45.60;;
56099;Laerm;44276;49.534;6.378;2023-12-28T04:29:41;44.27;42.82;45.36;;
56099;Laerm;44276;49.534;6.378;2023-12-28T04:32:10;44.27;43.19;45.48;;
56099;Laerm;44276;49.534;6.378;2023-12-28T04:34:38;44.27;43.14;45.45;;
56099;Laerm;44276;49.534;6.378;2023-12-28T04:37:06;44.27;42.98;45.60;;
56099;Laerm;44276;49.534;6.378;2023-12-28T04:39:34;44.42;43.09;52.33;;
56099;Laerm;44276;49.534;6.378;2023-12-28T04:42:04;44.28;43.04;45.72;;
56099;Laerm;44276;49.534;6.378;2023-12-28T04:44:32;44.28;43.24;45.23;;
56099;Laerm;44276;49.534;6.378;2023-12-28T04:47:05;44.31;43.04;46.43;;
56099;Laerm;44276;49.534;6.378;2023-12-28T04:49:33;44.29;43.09;45.54;;
56099;Laerm;44276;49.534;6.378;2023-12-28T04:52:02;44.32;43.04;45.77;;
56099;Laerm;44276;49.534;6.378;2023-12-28T04:54:30;44.37;43.04;60.34;;
56099;Laerm;44276;49.534;6.378;2023-12-28T04:56:59;44.32;43.04;45.80;;
56099;Laerm;44276;49.534;6.378;2023-12-28T04:59:29;44.41;43.09;47.38;;
56099;Laerm;44276;49.534;6.378;2023-12-28T05:01:57;44.34;43.09;46.76;;
56099;Laerm;44276;49.534;6.378;2023-12-28T05:04:25;44.41;42.93;47.44;;
56099;Laerm;44276;49.534;6.378;2023-12-28T05:06:53;44.33;43.04;46.93;;
56099;Laerm;44276;49.534;6.378;2023-12-28T05:09:21;44.31;43.00;45.40;;
56099;Laerm;44276;49.534;6.378;2023-12-28T05:11:49;44.29;43.04;45.51;;
56099;Laerm;44276;49.534;6.378;2023-12-28T05:14:17;44.27;43.24;45.36;;
56099;Laerm;44276;49.534;6.378;2023-12-28T05:16:47;44.27;42.98;45.36;;
56099;Laerm;44276;49.534;6.378;2023-12-28T05:19:16;44.30;43.19;45.48;;
56099;Laerm;44276;49.534;6.378;2023-12-28T05:21:45;44.32;43.09;45.54;;
56099;Laerm;44276;49.534;6.378;2023-12-28T05:24:14;44.30;42.98;45.88;;
56099;Laerm;44276;49.534;6.378;2023-12-28T05:26:42;44.28;43.04;45.28;;
56099;Laerm;44276;49.534;6.378;2023-12-28T05:29:10;44.31;43.19;45.42;;
56099;Laerm;44276;49.534;6.378;2023-12-28T05:31:38;44.30;42.82;45.42;;
56099;Laerm;44276;49.534;6.378;2023-12-28T05:34:08;44.31;42.98;45.51;;
56099;Laerm;44276;49.534;6.378;2023-12-28T05:36:37;44.29;42.93;45.33;;
56099;Laerm;44276;49.534;6.378;2023-12-28T05:39:07;44.29;43.09;45.33;;
56099;Laerm;44276;49.534;6.378;2023-12-28T05:41:36;44.32;42.82;47.12;;
56099;Laerm;44276;49.534;6.378;2023-12-28T05:44:04;44.30;43.09;45.36;;
56099;Laerm;44276;49.534;6.378;2023-12-28T05:46:32;44.37;43.09;52.96;;
56099;Laerm;44276;49.534;6.378;2023-12-28T05:49:00;44.33;43.14;45.34;;
56099;Laerm;44276;49.534;6.378;2023-12-28T05:51:29;44.34;43.19;46.23;;
56099;Laerm;44276;49.534;6.378;2023-12-28T05:53:57;44.33;43.09;45.54;;
56099;Laerm;44276;49.534;6.378;2023-12-28T05:56:26;44.33;42.98;45.45;;
56099;Laerm;44276;49.534;6.378;2023-12-28T05:58:54;44.33;43.09;46.05;;
56099;Laerm;44276;49.534;6.378;2023-12-28T06:01:22;44.33;43.14;45.45;;
56099;Laerm;44276;49.534;6.378;2023-12-28T06:03:50;44.35;43.24;45.48;;
56099;Laerm;44276;49.534;6.378;2023-12-28T06:06:19;44.34;43.04;45.51;;
56099;Laerm;44276;49.534;6.378;2023-12-28T06:08:49;44.36;43.09;45.43;;
56099;Laerm;44276;49.534;6.378;2023-12-28T06:11:18;44.37;43.09;45.86;;
56099;Laerm;44276;49.534;6.378;2023-12-28T06:13:46;44.38;43.09;47.04;;
56099;Laerm;44276;49.534;6.378;2023-12-28T06:16:14;44.33;43.14;45.57;;
56099;Laerm;44276;49.534;6.378;2023-12-28T06:18:42;44.33;43.19;45.51;;
56099;Laerm;44276;49.534;6.378;2023-12-28T06:21:10;44.34;43.14;45.75;;
56099;Laerm;44276;49.534;6.378;2023-12-28T06:23:39;44.35;43.19;45.57;;
56099;Laerm;44276;49.534;6.378;2023-12-28T06:26:08;44.32;43.14;45.83;;
56099;Laerm;44276;49.534;6.378;2023-12-28T06:28:36;44.36;43.19;45.54;;
56099;Laerm;44276;49.534;6.378;2023-12-28T06:31:05;44.35;43.24;45.45;;
56099;Laerm;44276;49.534;6.378;2023-12-28T06:33:33;44.36;42.93;46.59;;
56099;Laerm;44276;49.534;6.378;2023-12-28T06:36:05;44.34;43.04;45.42;;
56099;Laerm;44276;49.534;6.378;2023-12-28T06:38:34;44.35;43.24;45.33;;
56099;Laerm;44276;49.534;6.378;2023-12-28T06:41:02;44.35;43.14;48.32;;
56099;Laerm;44276;49.534;6.378;2023-12-28T06:43:31;44.37;43.19;46.73;;
56099;Laerm;44276;49.534;6.378;2023-12-28T06:45:59;44.31;43.14;45.45;;
56099;Laerm;44276;49.534;6.378;2023-12-28T06:48:28;44.32;43.19;45.39;;
56099;Laerm;44276;49.534;6.378;2023-12-28T06:50:56;44.34;43.14;45.48;;
56099;Laerm;44276;49.534;6.378;2023-12-28T06:53:24;44.35;43.09;45.46;;
56099;Laerm;44276;49.534;6.378;2023-12-28T06:55:52;44.35;43.09;45.80;;
56099;Laerm;44276;49.534;6.378;2023-12-28T06:58:21;44.33;42.98;45.54;;
56099;Laerm;44276;49.534;6.378;2023-12-28T07:00:50;44.33;43.09;45.51;;
56099;Laerm;44276;49.534;6.378;2023-12-28T07:03:20;44.33;43.09;45.51;;
56099;Laerm;44276;49.534;6.378;2023-12-28T07:05:48;44.33;43.09;45.60;;
56099;Laerm;44276;49.534;6.378;2023-12-28T07:08:17;44.35;43.09;45.94;;
56099;Laerm;44276;49.534;6.378;2023-12-28T07:10:45;44.34;43.14;45.42;;
56099;Laerm;44276;49.534;6.378;2023-12-28T07:13:13;44.34;43.14;45.57;;
56099;Laerm;44276;49.534;6.378;2023-12-28T07:15:41;44.34;43.29;45.39;;
56099;Laerm;44276;49.534;6.378;2023-12-28T07:18:10;44.33;43.04;45.63;;
56099;Laerm;44276;49.534;6.378;2023-12-28T07:20:39;44.33;43.29;45.66;;
56099;Laerm;44276;49.534;6.378;2023-12-28T07:23:07;44.42;43.14;48.02;;
56099;Laerm;44276;49.534;6.378;2023-12-28T07:25:35;44.34;43.19;45.45;;
56099;Laerm;44276;49.534;6.378;2023-12-28T07:28:04;44.38;43.14;47.63;;
56099;Laerm;44276;49.534;6.378;2023-12-28T07:30:32;44.37;43.14;48.26;;
56099;Laerm;44276;49.534;6.378;2023-12-28T07:33:01;44.32;43.04;45.75;;
56099;Laerm;44276;49.534;6.378;2023-12-28T07:35:30;44.33;42.88;45.77;;
56099;Laerm;44276;49.534;6.378;2023-12-28T07:37:59;44.32;42.98;45.39;;
56099;Laerm;44276;49.534;6.378;2023-12-28T07:40:27;44.30;43.24;45.94;;
56099;Laerm;44276;49.534;6.378;2023-12-28T07:42:55;44.31;43.19;45.36;;
56099;Laerm;44276;49.534;6.378;2023-12-28T07:45:24;44.36;42.93;45.54;;
56099;Laerm;44276;49.534;6.378;2023-12-28T07:47:52;44.34;43.09;45.63;;
56099;Laerm;44276;49.534;6.378;2023-12-28T07:50:21;44.38;43.14;48.57;;
56099;Laerm;44276;49.534;6.378;2023-12-28T07:52:51;44.33;43.19;45.45;;
56099;Laerm;44276;49.534;6.378;2023-12-28T07:55:19;44.32;43.04;47.96;;
56099;Laerm;44276;49.534;6.378;2023-12-28T07:57:47;44.32;43.09;45.57;;
56099;Laerm;44276;49.534;6.378;2023-12-28T08:00:16;44.32;43.14;45.48;;
56099;Laerm;44276;49.534;6.378;2023-12-28T08:02:44;44.31;43.14;45.36;;
56099;Laerm;44276;49.534;6.378;2023-12-28T08:05:12;44.29;43.04;45.42;;
56099;Laerm;44276;49.534;6.378;2023-12-28T08:07:40;44.32;43.19;46.30;;
56099;Laerm;44276;49.534;6.378;2023-12-28T08:10:10;44.29;43.09;45.48;;
56099;Laerm;44276;49.534;6.378;2023-12-28T08:12:38;44.31;42.93;45.86;;
56099;Laerm;44276;49.534;6.378;2023-12-28T08:15:08;44.37;43.04;46.07;;
56099;Laerm;44276;49.534;6.378;2023-12-28T08:17:36;44.49;43.14;47.67;;
56099;Laerm;44276;49.534;6.378;2023-12-28T08:20:06;44.37;43.09;45.97;;
56099;Laerm;44276;49.534;6.378;2023-12-28T08:22:35;44.39;43.19;49.53;;
56099;Laerm;44276;49.534;6.378;2023-12-28T08:25:04;44.43;43.19;47.61;;
56099;Laerm;44276;49.534;6.378;2023-12-28T08:27:35;44.35;43.29;45.72;;
56099;Laerm;44276;49.534;6.378;2023-12-28T08:30:05;44.32;43.14;45.45;;
56099;Laerm;44276;49.534;6.378;2023-12-28T08:32:33;44.36;42.88;46.18;;
56099;Laerm;44276;49.534;6.378;2023-12-28T08:35:02;44.44;43.04;46.62;;
56099;Laerm;44276;49.534;6.378;2023-12-28T08:37:31;44.55;43.24;47.70;;
56099;Laerm;44276;49.534;6.378;2023-12-28T08:39:59;44.38;43.09;45.60;;
56099;Laerm;44276;49.534;6.378;2023-12-28T08:42:27;44.33;43.04;45.48;;
56099;Laerm;44276;49.534;6.378;2023-12-28T08:44:56;44.35;43.09;45.48;;
56099;Laerm;44276;49.534;6.378;2023-12-28T08:47:24;44.37;43.04;45.63;;
56099;Laerm;44276;49.534;6.378;2023-12-28T08:49:53;44.34;43.09;45.45;;
56099;Laerm;44276;49.534;6.378;2023-12-28T08:52:22;44.39;43.14;52.94;;
56099;Laerm;44276;49.534;6.378;2023-12-28T08:54:50;44.37;42.93;45.60;;
56099;Laerm;44276;49.534;6.378;2023-12-28T08:57:18;44.37;42.98;46.89;;
56099;Laerm;44276;49.534;6.378;2023-12-28T09:00:08;44.44;43.29;45.80;;
56099;Laerm;44276;49.534;6.378;2023-12-28T09:02:37;44.44;43.24;45.51;;
56099;Laerm;44276;49.534;6.378;2023-12-28T09:05:06;44.37;43.24;45.63;;
56099;Laerm;44276;49.534;6.378;2023-12-28T09:07:34;44.35;43.19;45.39;;
56099;Laerm;44276;49.534;6.378;2023-12-28T09:10:06;44.37;43.24;45.42;;
56099;Laerm;44276;49.534;6.378;2023-12-28T09:12:34;44.38;43.19;45.63;;
56099;Laerm;44276;49.534;6.378;2023-12-28T09:15:04;44.38;43.24;45.45;;
56099;Laerm;44276;49.534;6.378;2023-12-28T09:17:33;44.36;42.98;45.42;;
56099;Laerm;44276;49.534;6.378;2023-12-28T09:20:02;44.38;43.24;45.83;;
56099;Laerm;44276;49.534;6.378;2023-12-28T09:22:33;44.38;43.04;45.42;;
56099;Laerm;44276;49.534;6.378;2023-12-28T09:25:01;44.37;43.29;45.39;;
56099;Laerm;44276;49.534;6.378;2023-12-28T09:27:29;44.39;43.29;45.66;;
56099;Laerm;44276;49.534;6.378;2023-12-28T09:29:58;44.39;43.24;45.39;;
56099;Laerm;44276;49.534;6.378;2023-12-28T09:32:26;44.39;43.04;45.42;;
56099;Laerm;44276;49.534;6.378;2023-12-28T09:34:55;44.43;43.34;45.94;;
56099;Laerm;44276;49.534;6.378;2023-12-28T09:37:24;44.42;43.14;45.46;;
56099;Laerm;44276;49.534;6.378;2023-12-28T09:39:53;44.41;43.09;45.60;;
56099;Laerm;44276;49.534;6.378;2023-12-28T09:42:26;44.39;43.14;45.54;;
56099;Laerm;44276;49.534;6.378;2023-12-28T09:44:57;44.40;43.09;45.48;;
56099;Laerm;44276;49.534;6.378;2023-12-28T09:47:25;44.39;43.09;45.51;;
56099;Laerm;44276;49.534;6.378;2023-12-28T09:49:55;44.42;42.93;49.69;;
56099;Laerm;44276;49.534;6.378;2023-12-28T09:52:23;44.43;43.24;45.48;;
56099;Laerm;44276;49.534;6.378;2023-12-28T09:54:51;44.42;42.76;45.48;;
56099;Laerm;44276;49.534;6.378;2023-12-28T09:57:20;44.44;43.29;57.09;;
56099;Laerm;44276;49.534;6.378;2023-12-28T09:59:49;44.42;43.29;45.77;;
56099;Laerm;44276;49.534;6.378;2023-12-28T10:02:18;44.46;43.34;45.72;;
56099;Laerm;44276;49.534;6.378;2023-12-28T10:04:46;44.43;42.98;45.57;;
56099;Laerm;44276;49.534;6.378;2023-12-28T10:07:16;44.44;43.09;45.69;;
56099;Laerm;44276;49.534;6.378;2023-12-28T10:09:44;44.42;43.14;47.02;;
56099;Laerm;44276;49.534;6.378;2023-12-28T10:12:12;44.43;43.19;45.57;;
56099;Laerm;44276;49.534;6.378;2023-12-28T10:14:41;44.42;43.39;45.60;;
56099;Laerm;44276;49.534;6.378;2023-12-28T10:17:09;44.43;43.19;45.75;;
56099;Laerm;44276;49.534;6.378;2023-12-28T10:19:37;44.41;43.24;45.54;;
56099;Laerm;44276;49.534;6.378;2023-12-28T10:22:06;44.41;42.93;45.51;;
56099;Laerm;44276;49.534;6.378;2023-12-28T10:24:43;44.40;43.19;45.42;;
56099;Laerm;44276;49.534;6.378;2023-12-28T10:27:13;44.41;43.34;45.57;;
56099;Laerm;44276;49.534;6.378;2023-12-28T10:29:42;44.41;42.98;45.48;;
56099;Laerm;44276;49.534;6.378;2023-12-28T10:32:11;44.41;43.19;45.66;;
56099;Laerm;44276;49.534;6.378;2023-12-28T10:34:40;44.40;43.19;45.51;;
56099;Laerm;44276;49.534;6.378;2023-12-28T10:37:08;44.40;43.24;45.60;;
56099;Laerm;44276;49.534;6.378;2023-12-28T10:39:44;44.38;42.98;45.57;;
56099;Laerm;44276;49.534;6.378;2023-12-28T10:42:22;44.39;43.34;45.48;;
56099;Laerm;44276;49.534;6.378;2023-12-28T10:45:01;44.41;43.19;45.39;;
56099;Laerm;44276;49.534;6.378;2023-12-28T10:47:33;44.41;43.14;45.57;;
56099;Laerm;44276;49.534;6.378;2023-12-28T10:50:05;44.40;43.24;45.60;;
56099;Laerm;44276;49.534;6.378;2023-12-28T10:52:35;44.41;43.14;45.45;;
56099;Laerm;44276;49.534;6.378;2023-12-28T10:55:30;44.39;43.24;45.54;;
56099;Laerm;44276;49.534;6.378;2023-12-28T10:58:10;44.38;43.19;45.60;;
56099;Laerm;44276;49.534;6.378;2023-12-28T11:00:50;44.37;43.14;45.60;;
56099;Laerm;44276;49.534;6.378;2023-12-28T11:03:30;44.37;43.29;45.36;;
56099;Laerm;44276;49.534;6.378;2023-12-28T11:06:04;44.37;43.14;45.57;;
56099;Laerm;44276;49.534;6.378;2023-12-28T11:08:34;44.36;42.98;45.48;;
56099;Laerm;44276;49.534;6.378;2023-12-28T11:11:06;44.38;43.24;45.45;;
56099;Laerm;44276;49.534;6.378;2023-12-28T11:13:36;44.38;43.24;45.48;;
56099;Laerm;44276;49.534;6.378;2023-12-28T11:16:05;44.38;43.14;45.54;;
56099;Laerm;44276;49.534;6.378;2023-12-28T11:18:34;44.39;43.24;45.42;;
56099;Laerm;44276;49.534;6.378;2023-12-28T11:21:03;44.39;43.29;45.42;;
56099;Laerm;44276;49.534;6.378;2023-12-28T11:23:35;44.39;43.24;45.48;;
56099;Laerm;44276;49.534;6.378;2023-12-28T11:26:16;44.38;43.24;45.63;;
56099;Laerm;44276;49.534;6.378;2023-12-28T11:28:44;44.39;43.09;45.45;;
56099;Laerm;44276;49.534;6.378;2023-12-28T11:31:14;44.36;43.19;45.33;;
56099;Laerm;44276;49.534;6.378;2023-12-28T11:33:45;44.35;43.09;45.51;;
56099;Laerm;44276;49.534;6.378;2023-12-28T11:36:22;44.34;43.14;45.48;;
56099;Laerm;44276;49.534;6.378;2023-12-28T11:38:53;44.34;43.19;45.31;;
56099;Laerm;44276;49.534;6.378;2023-12-28T11:41:27;44.33;43.04;45.45;;
56099;Laerm;44276;49.534;6.378;2023-12-28T11:43:55;44.33;43.19;45.36;;
56099;Laerm;44276;49.534;6.378;2023-12-28T11:46:23;44.33;43.14;45.54;;
56099;Laerm;44276;49.534;6.378;2023-12-28T11:49:03;44.33;43.19;45.39;;
56099;Laerm;44276;49.534;6.378;2023-12-28T11:51:33;44.34;43.05;45.75;;
56099;Laerm;44276;49.534;6.378;2023-12-28T11:54:03;44.35;43.09;45.48;;
56099;Laerm;44276;49.534;6.378;2023-12-28T11:56:32;44.36;43.09;45.48;;
56099;Laerm;44276;49.534;6.378;2023-12-28T11:59:01;44.37;43.19;45.54;;
56099;Laerm;44276;49.534;6.378;2023-12-28T12:01:29;44.40;43.29;45.66;;
56099;Laerm;44276;49.534;6.378;2023-12-28T12:03:57;44.41;43.09;45.54;;
56099;Laerm;44276;49.534;6.378;2023-12-28T12:06:26;44.41;43.28;45.45;;
56099;Laerm;44276;49.534;6.378;2023-12-28T12:08:54;44.40;43.29;45.54;;
56099;Laerm;44276;49.534;6.378;2023-12-28T12:11:24;44.41;43.14;45.80;;
56099;Laerm;44276;49.534;6.378;2023-12-28T12:13:55;44.40;43.28;45.57;;
56099;Laerm;44276;49.534;6.378;2023-12-28T12:16:23;44.41;43.09;45.86;;
56099;Laerm;44276;49.534;6.378;2023-12-28T12:18:53;44.40;43.24;45.54;;
56099;Laerm;44276;49.534;6.378;2023-12-28T12:21:24;44.39;43.09;45.54;;
56099;Laerm;44276;49.534;6.378;2023-12-28T12:23:52;44.40;43.14;45.51;;
56099;Laerm;44276;49.534;6.378;2023-12-28T12:26:20;44.39;43.24;45.45;;
56099;Laerm;44276;49.534;6.378;2023-12-28T12:28:48;44.40;42.98;45.60;;
56099;Laerm;44276;49.534;6.378;2023-12-28T12:31:18;44.41;43.09;45.63;;
56099;Laerm;44276;49.534;6.378;2023-12-28T12:33:47;44.39;43.19;45.54;;
56099;Laerm;44276;49.534;6.378;2023-12-28T12:36:18;44.40;43.19;45.42;;
56099;Laerm;44276;49.534;6.378;2023-12-28T12:38:48;44.40;43.34;45.60;;
56099;Laerm;44276;49.534;6.378;2023-12-28T12:41:17;44.40;43.14;45.45;;
56099;Laerm;44276;49.534;6.378;2023-12-28T12:43:46;44.42;42.88;45.39;;
56099;Laerm;44276;49.534;6.378;2023-12-28T12:46:14;44.43;43.04;45.54;;
56099;Laerm;44276;49.534;6.378;2023-12-28T12:48:55;44.46;43.14;45.57;;
56099;Laerm;44276;49.534;6.378;2023-12-28T12:51:24;44.45;43.29;45.63;;
56099;Laerm;44276;49.534;6.378;2023-12-28T12:53:56;44.44;43.14;45.66;;
56099;Laerm;44276;49.534;6.378;2023-12-28T12:56:26;44.44;43.19;45.48;;
56099;Laerm;44276;49.534;6.378;2023-12-28T12:58:55;44.43;43.19;45.66;;
56099;Laerm;44276;49.534;6.378;2023-12-28T13:01:23;44.42;43.14;45.60;;
56099;Laerm;44276;49.534;6.378;2023-12-28T13:03:53;44.46;43.19;45.66;;
56099;Laerm;44276;49.534;6.378;2023-12-28T13:06:21;44.45;43.19;46.05;;
56099;Laerm;44276;49.534;6.378;2023-12-28T13:08:50;44.45;43.37;47.02;;
56099;Laerm;44276;49.534;6.378;2023-12-28T13:11:18;44.44;43.29;45.57;;
56099;Laerm;44276;49.534;6.378;2023-12-28T13:13:51;44.47;43.24;46.69;;
56099;Laerm;44276;49.534;6.378;2023-12-28T13:16:20;44.43;42.88;45.60;;
56099;Laerm;44276;49.534;6.378;2023-12-28T13:18:48;44.51;43.09;46.52;;
56099;Laerm;44276;49.534;6.378;2023-12-28T13:21:17;44.47;43.04;45.69;;
56099;Laerm;44276;49.534;6.378;2023-12-28T13:23:45;44.48;43.29;48.18;;
56099;Laerm;44276;49.534;6.378;2023-12-28T13:26:13;44.45;43.34;48.08;;
56099;Laerm;44276;49.534;6.378;2023-12-28T13:28:42;44.42;43.24;46.38;;
56099;Laerm;44276;49.534;6.378;2023-12-28T13:31:10;44.45;43.04;45.89;;
56099;Laerm;44276;49.534;6.378;2023-12-28T13:33:39;44.49;43.29;47.88;;
56099;Laerm;44276;49.534;6.378;2023-12-28T13:36:07;44.44;42.98;47.76;;
56099;Laerm;44276;49.534;6.378;2023-12-28T13:38:37;44.46;42.82;46.08;;
56099;Laerm;44276;49.534;6.378;2023-12-28T13:41:05;44.48;43.19;47.70;;
56099;Laerm;44276;49.534;6.378;2023-12-28T13:43:33;44.48;43.09;53.03;;
56099;Laerm;44276;49.534;6.378;2023-12-28T13:46:02;44.43;43.09;47.42;;
56099;Laerm;44276;49.534;6.378;2023-12-28T13:48:31;44.38;43.29;45.83;;
56099;Laerm;44276;49.534;6.378;2023-12-28T13:51:00;44.38;43.19;45.51;;
56099;Laerm;44276;49.534;6.378;2023-12-28T13:53:28;44.36;43.24;45.54;;
56099;Laerm;44276;49.534;6.378;2023-12-28T13:55:57;44.41;43.04;46.28;;